sensor_id;sensor_type;location;lat;lon;timestamp;pressure;altitude;pressure_sealevel;temperature;humidity
39181;BME280;24906;48.262;14.264;2022-07-01T00:01:55;97984.50;;;18.71;100.00
39181;BME280;24906;48.262;14.264;2022-07-01T00:04:42;97945.50;;;18.87;100.00
39181;BME280;24906;48.262;14.264;2022-07-01T00:07:36;97933.47;;;18.89;100.00
39181;BME280;24906;48.262;14.264;2022-07-01T00:10:23;97940.03;;;19.00;100.00
39181;BME280;24906;48.262;14.264;2022-07-01T00:13:16;97936.28;;;19.01;100.00
39181;BME280;24906;48.262;14.264;2022-07-01T00:16:04;97946.59;;;19.04;100.00
39181;BME280;24906;48.262;14.264;2022-07-01T00:18:57;97941.72;;;18.94;100.00
39181;BME280;24906;48.262;14.264;2022-07-01T00:21:45;97932.97;;;18.99;100.00
39181;BME280;24906;48.262;14.264;2022-07-01T00:24:38;97924.91;;;18.99;100.00
39181;BME280;24906;48.262;14.264;2022-07-01T00:27:32;97917.31;;;19.14;100.00
39181;BME280;24906;48.262;14.264;2022-07-01T00:30:19;97911.28;;;19.19;100.00
39181;BME280;24906;48.262;14.264;2022-07-01T00:33:13;97916.41;;;19.02;100.00
39181;BME280;24906;48.262;14.264;2022-07-01T00:36:13;97933.22;;;18.97;100.00
39181;BME280;24906;48.262;14.264;2022-07-01T00:39:06;97942.31;;;18.96;100.00
39181;BME280;24906;48.262;14.264;2022-07-01T00:41:53;97942.22;;;18.85;100.00
39181;BME280;24906;48.262;14.264;2022-07-01T00:44:50;97944.69;;;18.86;100.00
39181;BME280;24906;48.262;14.264;2022-07-01T00:47:44;97951.78;;;18.81;100.00
39181;BME280;24906;48.262;14.264;2022-07-01T00:50:38;97966.84;;;18.82;100.00
39181;BME280;24906;48.262;14.264;2022-07-01T00:53:33;97963.44;;;18.93;100.00
39181;BME280;24906;48.262;14.264;2022-07-01T00:56:26;97966.59;;;18.90;100.00
39181;BME280;24906;48.262;14.264;2022-07-01T00:59:20;97973.00;;;18.89;100.00
39181;BME280;24906;48.262;14.264;2022-07-01T01:02:08;97979.38;;;18.94;100.00
39181;BME280;24906;48.262;14.264;2022-07-01T01:05:04;97988.44;;;19.00;100.00
39181;BME280;24906;48.262;14.264;2022-07-01T01:07:51;97996.09;;;18.96;100.00
39181;BME280;24906;48.262;14.264;2022-07-01T01:10:44;98006.69;;;18.91;100.00
39181;BME280;24906;48.262;14.264;2022-07-01T01:13:31;98007.19;;;18.82;100.00
39181;BME280;24906;48.262;14.264;2022-07-01T01:16:25;98010.06;;;18.80;100.00
39181;BME280;24906;48.262;14.264;2022-07-01T01:19:19;98008.50;;;18.66;100.00
39181;BME280;24906;48.262;14.264;2022-07-01T01:22:15;98020.53;;;18.63;100.00
39181;BME280;24906;48.262;14.264;2022-07-01T01:25:08;98016.84;;;18.57;100.00
39181;BME280;24906;48.262;14.264;2022-07-01T01:27:55;98012.47;;;18.56;100.00
39181;BME280;24906;48.262;14.264;2022-07-01T01:30:48;98012.66;;;18.62;100.00
39181;BME280;24906;48.262;14.264;2022-07-01T01:33:35;98025.19;;;18.43;100.00
39181;BME280;24906;48.262;14.264;2022-07-01T01:36:30;98023.69;;;18.53;100.00
39181;BME280;24906;48.262;14.264;2022-07-01T01:39:23;98019.25;;;18.66;100.00
39181;BME280;24906;48.262;14.264;2022-07-01T01:42:17;98021.97;;;18.59;100.00
39181;BME280;24906;48.262;14.264;2022-07-01T01:45:05;98025.13;;;18.49;100.00
39181;BME280;24906;48.262;14.264;2022-07-01T01:47:58;98018.13;;;18.42;100.00
39181;BME280;24906;48.262;14.264;2022-07-01T01:50:52;98014.56;;;18.54;100.00
39181;BME280;24906;48.262;14.264;2022-07-01T01:53:39;98022.84;;;18.53;100.00
39181;BME280;24906;48.262;14.264;2022-07-01T01:56:33;98024.22;;;18.69;100.00
39181;BME280;24906;48.262;14.264;2022-07-01T01:59:27;98022.53;;;18.68;100.00
39181;BME280;24906;48.262;14.264;2022-07-01T02:02:20;98019.38;;;18.77;100.00
39181;BME280;24906;48.262;14.264;2022-07-01T02:05:14;98022.66;;;18.79;100.00
39181;BME280;24906;48.262;14.264;2022-07-01T02:08:08;98021.66;;;18.81;100.00
39181;BME280;24906;48.262;14.264;2022-07-01T02:10:55;98028.44;;;18.90;100.00
39181;BME280;24906;48.262;14.264;2022-07-01T02:13:49;98036.97;;;18.80;100.00
39181;BME280;24906;48.262;14.264;2022-07-01T02:16:36;98047.03;;;18.91;100.00
39181;BME280;24906;48.262;14.264;2022-07-01T02:19:29;98063.22;;;18.78;100.00
39181;BME280;24906;48.262;14.264;2022-07-01T02:22:16;98078.56;;;18.71;100.00
39181;BME280;24906;48.262;14.264;2022-07-01T02:25:10;98074.28;;;18.63;100.00
39181;BME280;24906;48.262;14.264;2022-07-01T02:28:04;98076.56;;;18.59;100.00
39181;BME280;24906;48.262;14.264;2022-07-01T02:30:58;98080.06;;;18.60;100.00
39181;BME280;24906;48.262;14.264;2022-07-01T02:33:52;98080.06;;;18.60;100.00
39181;BME280;24906;48.262;14.264;2022-07-01T02:36:53;98100.97;;;18.51;100.00
39181;BME280;24906;48.262;14.264;2022-07-01T02:39:48;98102.13;;;18.24;100.00
39181;BME280;24906;48.262;14.264;2022-07-01T02:42:35;98110.78;;;18.32;100.00
39181;BME280;24906;48.262;14.264;2022-07-01T02:45:30;98109.88;;;18.52;100.00
39181;BME280;24906;48.262;14.264;2022-07-01T02:48:17;98106.81;;;18.42;100.00
39181;BME280;24906;48.262;14.264;2022-07-01T02:51:11;98117.59;;;18.35;100.00
39181;BME280;24906;48.262;14.264;2022-07-01T02:54:05;98133.91;;;18.33;100.00
39181;BME280;24906;48.262;14.264;2022-07-01T02:56:59;98135.75;;;18.39;100.00
39181;BME280;24906;48.262;14.264;2022-07-01T02:59:46;98137.16;;;18.49;100.00
39181;BME280;24906;48.262;14.264;2022-07-01T03:02:40;98146.13;;;18.29;100.00
39181;BME280;24906;48.262;14.264;2022-07-01T03:05:28;98151.88;;;18.39;100.00
39181;BME280;24906;48.262;14.264;2022-07-01T03:08:21;98154.00;;;18.17;100.00
39181;BME280;24906;48.262;14.264;2022-07-01T03:11:08;98153.59;;;18.14;100.00
39181;BME280;24906;48.262;14.264;2022-07-01T03:14:01;98158.53;;;18.24;100.00
39181;BME280;24906;48.262;14.264;2022-07-01T03:16:49;98162.72;;;18.06;100.00
39181;BME280;24906;48.262;14.264;2022-07-01T03:19:42;98173.69;;;17.98;100.00
39181;BME280;24906;48.262;14.264;2022-07-01T03:22:37;98177.97;;;18.12;100.00
39181;BME280;24906;48.262;14.264;2022-07-01T03:25:24;98177.16;;;18.12;100.00
39181;BME280;24906;48.262;14.264;2022-07-01T03:28:17;98182.72;;;18.17;100.00
39181;BME280;24906;48.262;14.264;2022-07-01T03:31:04;98189.56;;;17.86;100.00
39181;BME280;24906;48.262;14.264;2022-07-01T03:33:58;98205.66;;;17.99;100.00
39181;BME280;24906;48.262;14.264;2022-07-01T03:36:59;98216.00;;;17.89;100.00
39181;BME280;24906;48.262;14.264;2022-07-01T03:39:52;98221.59;;;18.08;100.00
39181;BME280;24906;48.262;14.264;2022-07-01T03:42:46;98218.25;;;18.12;100.00
39181;BME280;24906;48.262;14.264;2022-07-01T03:45:33;98231.72;;;17.92;100.00
39181;BME280;24906;48.262;14.264;2022-07-01T03:48:27;98232.72;;;17.91;100.00
39181;BME280;24906;48.262;14.264;2022-07-01T03:51:28;98237.25;;;17.84;100.00
39181;BME280;24906;48.262;14.264;2022-07-01T03:54:21;98240.19;;;18.03;100.00
39181;BME280;24906;48.262;14.264;2022-07-01T03:57:26;98243.47;;;18.18;100.00
39181;BME280;24906;48.262;14.264;2022-07-01T04:00:13;98246.16;;;18.18;100.00
39181;BME280;24906;48.262;14.264;2022-07-01T04:03:07;98259.78;;;18.16;100.00
39181;BME280;24906;48.262;14.264;2022-07-01T04:06:01;98264.56;;;18.08;100.00
39181;BME280;24906;48.262;14.264;2022-07-01T04:08:55;98254.44;;;18.23;100.00
39181;BME280;24906;48.262;14.264;2022-07-01T04:11:50;98267.03;;;18.16;100.00
39181;BME280;24906;48.262;14.264;2022-07-01T04:14:44;98275.28;;;18.21;100.00
39181;BME280;24906;48.262;14.264;2022-07-01T04:17:38;98265.97;;;18.30;100.00
39181;BME280;24906;48.262;14.264;2022-07-01T04:20:25;98272.00;;;18.32;100.00
39181;BME280;24906;48.262;14.264;2022-07-01T04:23:19;98286.66;;;18.23;100.00
39181;BME280;24906;48.262;14.264;2022-07-01T04:26:13;98284.16;;;18.42;100.00
39181;BME280;24906;48.262;14.264;2022-07-01T04:29:23;98290.56;;;18.47;100.00
39181;BME280;24906;48.262;14.264;2022-07-01T04:32:16;98288.28;;;18.51;100.00
39181;BME280;24906;48.262;14.264;2022-07-01T04:35:03;98296.31;;;18.64;100.00
39181;BME280;24906;48.262;14.264;2022-07-01T04:38:05;98298.41;;;18.49;100.00
39181;BME280;24906;48.262;14.264;2022-07-01T04:40:59;98305.88;;;18.53;100.00
39181;BME280;24906;48.262;14.264;2022-07-01T04:44:11;98315.75;;;18.53;100.00
39181;BME280;24906;48.262;14.264;2022-07-01T04:46:59;98306.28;;;18.50;100.00
39181;BME280;24906;48.262;14.264;2022-07-01T04:49:53;98321.34;;;18.71;100.00
39181;BME280;24906;48.262;14.264;2022-07-01T04:52:48;98314.53;;;18.82;100.00
39181;BME280;24906;48.262;14.264;2022-07-01T04:55:35;98321.31;;;18.78;100.00
39181;BME280;24906;48.262;14.264;2022-07-01T04:58:28;98331.25;;;18.77;100.00
39181;BME280;24906;48.262;14.264;2022-07-01T05:01:15;98326.28;;;18.68;100.00
39181;BME280;24906;48.262;14.264;2022-07-01T05:04:11;98325.25;;;18.75;100.00
39181;BME280;24906;48.262;14.264;2022-07-01T05:06:58;98329.78;;;18.95;100.00
39181;BME280;24906;48.262;14.264;2022-07-01T05:09:52;98332.09;;;18.85;100.00
39181;BME280;24906;48.262;14.264;2022-07-01T05:12:39;98333.34;;;18.69;100.00
39181;BME280;24906;48.262;14.264;2022-07-01T05:15:33;98340.75;;;18.73;100.00
39181;BME280;24906;48.262;14.264;2022-07-01T05:18:27;98343.88;;;18.90;100.00
39181;BME280;24906;48.262;14.264;2022-07-01T05:21:39;98352.13;;;19.09;100.00
39181;BME280;24906;48.262;14.264;2022-07-01T05:24:51;98352.91;;;19.16;100.00
39181;BME280;24906;48.262;14.264;2022-07-01T05:27:38;98359.13;;;19.16;100.00
39181;BME280;24906;48.262;14.264;2022-07-01T05:30:31;98356.19;;;19.25;100.00
39181;BME280;24906;48.262;14.264;2022-07-01T05:33:24;98355.53;;;19.36;100.00
39181;BME280;24906;48.262;14.264;2022-07-01T05:36:26;98362.38;;;19.32;100.00
39181;BME280;24906;48.262;14.264;2022-07-01T05:39:19;98369.41;;;19.40;100.00
39181;BME280;24906;48.262;14.264;2022-07-01T05:42:13;98370.19;;;19.47;100.00
39181;BME280;24906;48.262;14.264;2022-07-01T05:45:00;98373.09;;;19.45;100.00
39181;BME280;24906;48.262;14.264;2022-07-01T05:47:54;98376.78;;;19.58;100.00
39181;BME280;24906;48.262;14.264;2022-07-01T05:50:49;98377.63;;;19.45;100.00
39181;BME280;24906;48.262;14.264;2022-07-01T05:53:43;98375.94;;;19.57;100.00
39181;BME280;24906;48.262;14.264;2022-07-01T05:56:31;98379.66;;;19.63;100.00
39181;BME280;24906;48.262;14.264;2022-07-01T05:59:25;98372.19;;;19.58;100.00
39181;BME280;24906;48.262;14.264;2022-07-01T06:02:12;98386.88;;;19.69;100.00
39181;BME280;24906;48.262;14.264;2022-07-01T06:05:06;98381.47;;;19.75;100.00
39181;BME280;24906;48.262;14.264;2022-07-01T06:07:54;98378.16;;;19.73;100.00
39181;BME280;24906;48.262;14.264;2022-07-01T06:10:47;98379.22;;;19.66;100.00
39181;BME280;24906;48.262;14.264;2022-07-01T06:13:40;98388.50;;;19.70;100.00
39181;BME280;24906;48.262;14.264;2022-07-01T06:16:34;98374.88;;;19.65;100.00
39181;BME280;24906;48.262;14.264;2022-07-01T06:19:28;98385.63;;;19.78;100.00
39181;BME280;24906;48.262;14.264;2022-07-01T06:22:22;98390.19;;;19.71;100.00
39181;BME280;24906;48.262;14.264;2022-07-01T06:25:16;98383.13;;;19.70;100.00
39181;BME280;24906;48.262;14.264;2022-07-01T06:28:03;98380.66;;;19.75;100.00
39181;BME280;24906;48.262;14.264;2022-07-01T06:30:57;98383.34;;;19.75;100.00
39181;BME280;24906;48.262;14.264;2022-07-01T06:33:51;98377.97;;;19.68;100.00
39181;BME280;24906;48.262;14.264;2022-07-01T06:36:52;98380.22;;;19.78;100.00
39181;BME280;24906;48.262;14.264;2022-07-01T06:39:45;98373.56;;;19.87;100.00
39181;BME280;24906;48.262;14.264;2022-07-01T06:42:39;98382.25;;;19.89;100.00
39181;BME280;24906;48.262;14.264;2022-07-01T06:45:26;98379.38;;;19.84;100.00
39181;BME280;24906;48.262;14.264;2022-07-01T06:48:19;98395.41;;;20.04;100.00
39181;BME280;24906;48.262;14.264;2022-07-01T06:51:06;98390.34;;;19.89;100.00
39181;BME280;24906;48.262;14.264;2022-07-01T06:54:00;98395.06;;;19.94;100.00
39181;BME280;24906;48.262;14.264;2022-07-01T06:56:54;98386.09;;;20.07;100.00
39181;BME280;24906;48.262;14.264;2022-07-01T06:59:41;98377.72;;;20.15;100.00
39181;BME280;24906;48.262;14.264;2022-07-01T07:02:35;98382.03;;;20.23;100.00
39181;BME280;24906;48.262;14.264;2022-07-01T07:05:29;98385.72;;;20.28;100.00
39181;BME280;24906;48.262;14.264;2022-07-01T07:08:24;98392.94;;;20.34;100.00
39181;BME280;24906;48.262;14.264;2022-07-01T07:11:11;98382.00;;;20.54;100.00
39181;BME280;24906;48.262;14.264;2022-07-01T07:14:08;98370.38;;;20.61;100.00
39181;BME280;24906;48.262;14.264;2022-07-01T07:17:02;98374.94;;;20.60;98.51
39181;BME280;24906;48.262;14.264;2022-07-01T07:19:56;98378.72;;;20.78;95.85
39181;BME280;24906;48.262;14.264;2022-07-01T07:22:50;98377.63;;;20.85;96.73
39181;BME280;24906;48.262;14.264;2022-07-01T07:25:39;98375.38;;;21.01;92.75
39181;BME280;24906;48.262;14.264;2022-07-01T07:28:32;98378.00;;;21.07;95.55
39181;BME280;24906;48.262;14.264;2022-07-01T07:31:36;98373.38;;;20.96;96.56
39181;BME280;24906;48.262;14.264;2022-07-01T07:34:29;98363.03;;;21.11;91.50
39181;BME280;24906;48.262;14.264;2022-07-01T07:37:30;98370.06;;;21.12;92.75
39181;BME280;24906;48.262;14.264;2022-07-01T07:40:25;98370.22;;;21.18;92.13
39181;BME280;24906;48.262;14.264;2022-07-01T07:43:12;98369.16;;;21.19;87.81
39181;BME280;24906;48.262;14.264;2022-07-01T07:46:06;98358.97;;;21.21;91.15
39181;BME280;24906;48.262;14.264;2022-07-01T07:49:00;98356.72;;;21.36;88.31
39181;BME280;24906;48.262;14.264;2022-07-01T07:51:47;98373.75;;;21.55;89.09
39181;BME280;24906;48.262;14.264;2022-07-01T07:54:41;98370.19;;;21.61;89.76
39181;BME280;24906;48.262;14.264;2022-07-01T07:57:36;98379.63;;;21.52;86.80
39181;BME280;24906;48.262;14.264;2022-07-01T08:00:30;98378.56;;;21.35;87.80
39181;BME280;24906;48.262;14.264;2022-07-01T08:03:26;98383.16;;;21.53;87.76
39181;BME280;24906;48.262;14.264;2022-07-01T08:06:19;98407.66;;;21.51;85.94
39181;BME280;24906;48.262;14.264;2022-07-01T08:09:13;98406.75;;;21.76;86.39
39181;BME280;24906;48.262;14.264;2022-07-01T08:12:02;98399.03;;;21.61;87.69
39181;BME280;24906;48.262;14.264;2022-07-01T08:14:56;98392.44;;;21.57;86.61
39181;BME280;24906;48.262;14.264;2022-07-01T08:17:43;98383.06;;;21.89;86.05
39181;BME280;24906;48.262;14.264;2022-07-01T08:20:37;98382.63;;;21.93;85.90
39181;BME280;24906;48.262;14.264;2022-07-01T08:23:24;98368.09;;;21.94;85.31
39181;BME280;24906;48.262;14.264;2022-07-01T08:26:18;98374.84;;;21.84;86.96
39181;BME280;24906;48.262;14.264;2022-07-01T08:29:05;98375.38;;;22.05;88.42
39181;BME280;24906;48.262;14.264;2022-07-01T08:31:59;98362.44;;;22.25;87.27
39181;BME280;24906;48.262;14.264;2022-07-01T08:34:46;98368.81;;;22.43;84.83
39181;BME280;24906;48.262;14.264;2022-07-01T08:37:40;98375.38;;;22.35;86.42
39181;BME280;24906;48.262;14.264;2022-07-01T08:40:33;98371.00;;;22.22;85.29
39181;BME280;24906;48.262;14.264;2022-07-01T08:43:27;98375.94;;;22.25;82.78
39181;BME280;24906;48.262;14.264;2022-07-01T08:46:14;98384.09;;;22.07;83.41
39181;BME280;24906;48.262;14.264;2022-07-01T08:49:08;98380.16;;;22.21;81.97
39181;BME280;24906;48.262;14.264;2022-07-01T08:51:55;98375.94;;;22.25;81.42
39181;BME280;24906;48.262;14.264;2022-07-01T08:54:49;98376.69;;;22.33;81.33
39181;BME280;24906;48.262;14.264;2022-07-01T08:57:36;98381.50;;;22.31;83.03
39181;BME280;24906;48.262;14.264;2022-07-01T09:00:31;98388.31;;;22.45;82.99
39181;BME280;24906;48.262;14.264;2022-07-01T09:03:26;98381.16;;;22.39;82.25
39181;BME280;24906;48.262;14.264;2022-07-01T09:06:20;98377.84;;;22.37;83.38
39181;BME280;24906;48.262;14.264;2022-07-01T09:09:18;98369.66;;;22.55;83.82
39181;BME280;24906;48.262;14.264;2022-07-01T09:12:15;98379.66;;;22.55;82.51
39181;BME280;24906;48.262;14.264;2022-07-01T09:15:21;98371.50;;;22.43;80.98
39181;BME280;24906;48.262;14.264;2022-07-01T09:18:16;98361.19;;;22.40;83.69
39181;BME280;24906;48.262;14.264;2022-07-01T09:21:13;98358.25;;;22.53;82.36
39181;BME280;24906;48.262;14.264;2022-07-01T09:27:25;98362.72;;;22.71;80.06
39181;BME280;24906;48.262;14.264;2022-07-01T09:30:13;98363.69;;;22.77;81.85
39181;BME280;24906;48.262;14.264;2022-07-01T09:36:05;98351.91;;;22.83;79.88
39181;BME280;24906;48.262;14.264;2022-07-01T09:39:03;98348.38;;;22.94;80.86
39181;BME280;24906;48.262;14.264;2022-07-01T09:42:11;98340.63;;;23.10;79.81
39181;BME280;24906;48.262;14.264;2022-07-01T09:45:06;98338.88;;;23.03;80.46
39181;BME280;24906;48.262;14.264;2022-07-01T09:47:54;98338.59;;;23.17;80.62
39181;BME280;24906;48.262;14.264;2022-07-01T09:50:49;98347.31;;;23.59;80.33
39181;BME280;24906;48.262;14.264;2022-07-01T09:53:43;98330.34;;;23.64;77.83
39181;BME280;24906;48.262;14.264;2022-07-01T09:56:38;98336.69;;;23.70;79.31
39181;BME280;24906;48.262;14.264;2022-07-01T09:59:25;98325.47;;;23.78;80.16
39181;BME280;24906;48.262;14.264;2022-07-01T10:02:20;98333.00;;;23.88;77.54
39181;BME280;24906;48.262;14.264;2022-07-01T10:05:11;98318.53;;;23.70;75.64
39181;BME280;24906;48.262;14.264;2022-07-01T10:08:14;98330.06;;;23.77;77.35
39181;BME280;24906;48.262;14.264;2022-07-01T10:14:24;98331.34;;;23.87;77.30
39181;BME280;24906;48.262;14.264;2022-07-01T10:17:26;98324.31;;;24.02;77.90
39181;BME280;24906;48.262;14.264;2022-07-01T10:20:25;98330.25;;;24.16;77.65
39181;BME280;24906;48.262;14.264;2022-07-01T10:23:13;98336.81;;;24.20;74.00
39181;BME280;24906;48.262;14.264;2022-07-01T10:26:07;98335.97;;;24.03;74.23
39181;BME280;24906;48.262;14.264;2022-07-01T10:29:05;98338.34;;;23.99;75.35
39181;BME280;24906;48.262;14.264;2022-07-01T10:35:36;98332.34;;;23.97;75.00
39181;BME280;24906;48.262;14.264;2022-07-01T10:41:58;98336.66;;;24.27;74.70
39181;BME280;24906;48.262;14.264;2022-07-01T10:45:07;98341.50;;;24.25;73.43
39181;BME280;24906;48.262;14.264;2022-07-01T10:48:22;98349.19;;;23.99;75.31
39181;BME280;24906;48.262;14.264;2022-07-01T10:51:09;98333.94;;;24.10;73.94
39181;BME280;24906;48.262;14.264;2022-07-01T10:54:08;98343.56;;;24.18;73.22
39181;BME280;24906;48.262;14.264;2022-07-01T11:03:15;98336.09;;;24.42;73.56
39181;BME280;24906;48.262;14.264;2022-07-01T11:06:09;98333.69;;;24.46;72.57
39181;BME280;24906;48.262;14.264;2022-07-01T11:09:04;98328.06;;;24.64;70.36
39181;BME280;24906;48.262;14.264;2022-07-01T11:11:52;98323.38;;;24.59;68.74
39181;BME280;24906;48.262;14.264;2022-07-01T11:14:46;98314.72;;;24.62;68.55
39181;BME280;24906;48.262;14.264;2022-07-01T11:17:34;98317.09;;;24.59;67.94
39181;BME280;24906;48.262;14.264;2022-07-01T11:20:31;98312.16;;;24.39;69.11
39181;BME280;24906;48.262;14.264;2022-07-01T11:23:25;98315.38;;;24.70;71.39
39181;BME280;24906;48.262;14.264;2022-07-01T11:26:23;98307.31;;;24.75;67.90
39181;BME280;24906;48.262;14.264;2022-07-01T11:29:25;98308.06;;;24.70;69.21
39181;BME280;24906;48.262;14.264;2022-07-01T11:32:24;98304.66;;;24.80;69.25
39181;BME280;24906;48.262;14.264;2022-07-01T11:35:21;98309.34;;;24.85;68.97
39181;BME280;24906;48.262;14.264;2022-07-01T11:38:34;98305.06;;;24.89;67.85
39181;BME280;24906;48.262;14.264;2022-07-01T11:41:57;98306.16;;;25.10;66.90
39181;BME280;24906;48.262;14.264;2022-07-01T11:44:51;98299.38;;;25.29;65.83
39181;BME280;24906;48.262;14.264;2022-07-01T11:47:38;98296.09;;;25.27;65.40
39181;BME280;24906;48.262;14.264;2022-07-01T11:50:35;98300.94;;;25.25;68.86
39181;BME280;24906;48.262;14.264;2022-07-01T11:53:29;98301.13;;;25.40;70.28
39181;BME280;24906;48.262;14.264;2022-07-01T11:56:36;98301.03;;;25.30;69.33
39181;BME280;24906;48.262;14.264;2022-07-01T11:59:32;98309.06;;;25.03;70.55
39181;BME280;24906;48.262;14.264;2022-07-01T12:02:27;98306.66;;;25.07;71.48
39181;BME280;24906;48.262;14.264;2022-07-01T12:05:14;98308.31;;;25.08;68.51
39181;BME280;24906;48.262;14.264;2022-07-01T12:08:08;98312.41;;;25.10;68.72
39181;BME280;24906;48.262;14.264;2022-07-01T12:11:02;98315.38;;;25.09;67.40
39181;BME280;24906;48.262;14.264;2022-07-01T12:13:57;98315.88;;;25.06;66.97
39181;BME280;24906;48.262;14.264;2022-07-01T12:16:58;98310.00;;;25.14;67.89
39181;BME280;24906;48.262;14.264;2022-07-01T12:19:47;98309.88;;;25.04;67.98
39181;BME280;24906;48.262;14.264;2022-07-01T12:22:41;98313.28;;;25.16;69.28
39181;BME280;24906;48.262;14.264;2022-07-01T12:25:35;98315.53;;;25.41;66.22
39181;BME280;24906;48.262;14.264;2022-07-01T12:28:38;98303.56;;;25.64;65.50
39181;BME280;24906;48.262;14.264;2022-07-01T12:31:33;98306.09;;;25.98;65.58
39181;BME280;24906;48.262;14.264;2022-07-01T12:37:40;98309.38;;;26.65;60.41
39181;BME280;24906;48.262;14.264;2022-07-01T12:40:34;98314.78;;;27.02;60.86
39181;BME280;24906;48.262;14.264;2022-07-01T12:43:30;98316.28;;;27.25;59.17
39181;BME280;24906;48.262;14.264;2022-07-01T12:46:28;98307.44;;;27.66;58.61
39181;BME280;24906;48.262;14.264;2022-07-01T12:49:24;98310.69;;;27.68;57.81
39181;BME280;24906;48.262;14.264;2022-07-01T12:52:26;98315.31;;;27.52;58.96
39181;BME280;24906;48.262;14.264;2022-07-01T12:55:17;98319.31;;;27.29;60.65
39181;BME280;24906;48.262;14.264;2022-07-01T12:58:18;98321.84;;;26.98;58.70
39181;BME280;24906;48.262;14.264;2022-07-01T13:01:05;98319.78;;;26.73;60.36
39181;BME280;24906;48.262;14.264;2022-07-01T13:03:59;98321.78;;;26.50;59.56
39181;BME280;24906;48.262;14.264;2022-07-01T13:06:46;98334.72;;;26.06;62.82
39181;BME280;24906;48.262;14.264;2022-07-01T13:09:40;98328.94;;;25.97;61.38
39181;BME280;24906;48.262;14.264;2022-07-01T13:12:28;98320.06;;;25.79;62.37
39181;BME280;24906;48.262;14.264;2022-07-01T13:15:21;98321.44;;;25.60;63.20
39181;BME280;24906;48.262;14.264;2022-07-01T13:18:16;98313.25;;;25.33;64.22
39181;BME280;24906;48.262;14.264;2022-07-01T13:21:03;98317.72;;;25.22;62.61
39181;BME280;24906;48.262;14.264;2022-07-01T13:23:57;98313.16;;;25.06;64.24
39181;BME280;24906;48.262;14.264;2022-07-01T13:27:11;98306.44;;;24.91;64.88
39181;BME280;24906;48.262;14.264;2022-07-01T13:30:07;98310.28;;;24.73;68.43
39181;BME280;24906;48.262;14.264;2022-07-01T13:33:01;98320.81;;;24.70;66.30
39181;BME280;24906;48.262;14.264;2022-07-01T13:36:09;98331.44;;;24.54;68.12
39181;BME280;24906;48.262;14.264;2022-07-01T13:39:10;98335.09;;;24.48;68.13
39181;BME280;24906;48.262;14.264;2022-07-01T13:41:57;98334.53;;;24.46;68.87
39181;BME280;24906;48.262;14.264;2022-07-01T13:44:51;98347.59;;;24.32;67.62
39181;BME280;24906;48.262;14.264;2022-07-01T13:47:38;98354.94;;;24.03;67.96
39181;BME280;24906;48.262;14.264;2022-07-01T13:50:32;98355.13;;;23.96;68.79
39181;BME280;24906;48.262;14.264;2022-07-01T13:53:26;98354.66;;;23.88;70.77
39181;BME280;24906;48.262;14.264;2022-07-01T13:56:13;98363.09;;;23.62;70.23
39181;BME280;24906;48.262;14.264;2022-07-01T13:59:07;98363.63;;;23.48;71.29
39181;BME280;24906;48.262;14.264;2022-07-01T14:01:55;98360.28;;;23.57;71.21
39181;BME280;24906;48.262;14.264;2022-07-01T14:04:49;98370.19;;;23.52;72.13
39181;BME280;24906;48.262;14.264;2022-07-01T14:07:36;98387.19;;;23.47;72.03
39181;BME280;24906;48.262;14.264;2022-07-01T14:10:30;98424.78;;;23.32;73.31
39181;BME280;24906;48.262;14.264;2022-07-01T14:13:18;98451.72;;;23.15;73.40
39181;BME280;24906;48.262;14.264;2022-07-01T14:16:14;98461.84;;;23.08;74.86
39181;BME280;24906;48.262;14.264;2022-07-01T14:19:01;98439.88;;;22.62;73.46
39181;BME280;24906;48.262;14.264;2022-07-01T14:21:58;98424.41;;;22.39;75.24
39181;BME280;24906;48.262;14.264;2022-07-01T14:24:46;98462.34;;;22.02;75.87
39181;BME280;24906;48.262;14.264;2022-07-01T14:27:40;98507.53;;;21.58;80.11
39181;BME280;24906;48.262;14.264;2022-07-01T14:30:27;98488.41;;;21.34;79.65
39181;BME280;24906;48.262;14.264;2022-07-01T14:33:21;98501.88;;;20.90;82.85
39181;BME280;24906;48.262;14.264;2022-07-01T14:36:21;98524.09;;;20.54;90.21
39181;BME280;24906;48.262;14.264;2022-07-01T14:39:22;98541.75;;;19.98;100.00
39181;BME280;24906;48.262;14.264;2022-07-01T14:42:16;98545.94;;;19.67;100.00
39181;BME280;24906;48.262;14.264;2022-07-01T14:45:04;98559.44;;;19.14;100.00
39181;BME280;24906;48.262;14.264;2022-07-01T14:47:58;98577.63;;;18.92;100.00
39181;BME280;24906;48.262;14.264;2022-07-01T14:50:52;98636.06;;;18.70;100.00
39181;BME280;24906;48.262;14.264;2022-07-01T14:53:39;98679.63;;;18.17;100.00
39181;BME280;24906;48.262;14.264;2022-07-01T14:56:40;98738.53;;;17.90;100.00
39181;BME280;24906;48.262;14.264;2022-07-01T14:59:27;98777.88;;;17.61;100.00
39181;BME280;24906;48.262;14.264;2022-07-01T15:02:20;98672.97;;;16.92;100.00
39181;BME280;24906;48.262;14.264;2022-07-01T15:05:08;98670.19;;;16.34;100.00
39181;BME280;24906;48.262;14.264;2022-07-01T15:08:01;98773.91;;;15.56;100.00
39181;BME280;24906;48.262;14.264;2022-07-01T15:10:48;98770.25;;;15.25;100.00
39181;BME280;24906;48.262;14.264;2022-07-01T15:13:42;98751.38;;;15.27;100.00
39181;BME280;24906;48.262;14.264;2022-07-01T15:16:30;98737.84;;;15.29;100.00
39181;BME280;24906;48.262;14.264;2022-07-01T15:19:26;98742.16;;;15.30;100.00
39181;BME280;24906;48.262;14.264;2022-07-01T15:22:20;98766.94;;;15.23;100.00
39181;BME280;24906;48.262;14.264;2022-07-01T15:25:08;98788.00;;;15.18;100.00
39181;BME280;24906;48.262;14.264;2022-07-01T15:28:01;98784.34;;;15.19;100.00